sensor_id;sensor_type;location;lat;lon;timestamp;P1;durP1;ratioP1;P2;durP2;ratioP2
37047;SDS011;23227;48.780;9.210;2023-03-01T00:02:30;20.45;;;9.13;;
37047;SDS011;23227;48.780;9.210;2023-03-01T00:05:33;26.33;;;10.23;;
37047;SDS011;23227;48.780;9.210;2023-03-01T00:08:36;19.98;;;8.98;;
37047;SDS011;23227;48.780;9.210;2023-03-01T00:11:39;21.30;;;9.50;;
37047;SDS011;23227;48.780;9.210;2023-03-01T00:14:41;19.10;;;9.10;;
37047;SDS011;23227;48.780;9.210;2023-03-01T00:17:45;20.88;;;9.50;;
37047;SDS011;23227;48.780;9.210;2023-03-01T00:20:49;17.90;;;9.15;;
37047;SDS011;23227;48.780;9.210;2023-03-01T00:23:53;18.45;;;8.95;;
37047;SDS011;23227;48.780;9.210;2023-03-01T00:26:56;17.92;;;9.00;;
37047;SDS011;23227;48.780;9.210;2023-03-01T00:29:58;24.77;;;10.68;;
37047;SDS011;23227;48.780;9.210;2023-03-01T00:33:03;22.10;;;9.23;;
37047;SDS011;23227;48.780;9.210;2023-03-01T00:36:06;21.95;;;9.38;;
37047;SDS011;23227;48.780;9.210;2023-03-01T00:39:10;18.90;;;9.30;;
37047;SDS011;23227;48.780;9.210;2023-03-01T00:42:14;20.40;;;9.90;;
37047;SDS011;23227;48.780;9.210;2023-03-01T00:45:17;21.00;;;9.55;;
37047;SDS011;23227;48.780;9.210;2023-03-01T00:48:21;18.20;;;9.18;;
37047;SDS011;23227;48.780;9.210;2023-03-01T00:51:25;19.85;;;9.00;;
37047;SDS011;23227;48.780;9.210;2023-03-01T00:54:29;21.58;;;9.45;;
37047;SDS011;23227;48.780;9.210;2023-03-01T00:57:31;20.08;;;9.75;;
37047;SDS011;23227;48.780;9.210;2023-03-01T01:00:34;22.98;;;9.63;;
37047;SDS011;23227;48.780;9.210;2023-03-01T01:03:39;22.52;;;9.35;;
37047;SDS011;23227;48.780;9.210;2023-03-01T01:06:42;21.33;;;9.05;;
37047;SDS011;23227;48.780;9.210;2023-03-01T01:09:46;23.33;;;10.35;;
37047;SDS011;23227;48.780;9.210;2023-03-01T01:12:49;24.27;;;9.48;;
37047;SDS011;23227;48.780;9.210;2023-03-01T01:15:51;23.00;;;8.60;;
37047;SDS011;23227;48.780;9.210;2023-03-01T01:18:56;25.13;;;9.13;;
37047;SDS011;23227;48.780;9.210;2023-03-01T01:21:59;22.40;;;8.82;;
37047;SDS011;23227;48.780;9.210;2023-03-01T01:25:01;21.25;;;8.95;;
37047;SDS011;23227;48.780;9.210;2023-03-01T01:28:04;20.65;;;9.45;;
37047;SDS011;23227;48.780;9.210;2023-03-01T01:31:07;21.42;;;9.27;;
37047;SDS011;23227;48.780;9.210;2023-03-01T01:34:14;19.70;;;8.27;;
37047;SDS011;23227;48.780;9.210;2023-03-01T01:37:18;20.23;;;9.95;;
37047;SDS011;23227;48.780;9.210;2023-03-01T01:40:21;18.13;;;9.15;;
37047;SDS011;23227;48.780;9.210;2023-03-01T01:43:24;19.10;;;9.05;;
37047;SDS011;23227;48.780;9.210;2023-03-01T01:46:29;20.52;;;9.43;;
37047;SDS011;23227;48.780;9.210;2023-03-01T01:49:36;24.38;;;10.18;;
37047;SDS011;23227;48.780;9.210;2023-03-01T01:52:40;22.02;;;9.48;;
37047;SDS011;23227;48.780;9.210;2023-03-01T01:55:44;23.65;;;9.93;;
37047;SDS011;23227;48.780;9.210;2023-03-01T01:58:48;21.13;;;9.43;;
37047;SDS011;23227;48.780;9.210;2023-03-01T02:01:51;22.20;;;9.70;;
37047;SDS011;23227;48.780;9.210;2023-03-01T02:04:58;16.33;;;8.98;;
37047;SDS011;23227;48.780;9.210;2023-03-01T02:08:05;22.13;;;9.07;;
37047;SDS011;23227;48.780;9.210;2023-03-01T02:11:08;23.92;;;9.13;;
37047;SDS011;23227;48.780;9.210;2023-03-01T02:14:12;23.17;;;9.20;;
37047;SDS011;23227;48.780;9.210;2023-03-01T02:17:15;22.43;;;9.60;;
37047;SDS011;23227;48.780;9.210;2023-03-01T02:20:22;21.37;;;9.40;;
37047;SDS011;23227;48.780;9.210;2023-03-01T02:23:29;18.83;;;9.93;;
37047;SDS011;23227;48.780;9.210;2023-03-01T02:26:33;20.27;;;9.47;;
37047;SDS011;23227;48.780;9.210;2023-03-01T02:29:39;23.97;;;10.90;;
37047;SDS011;23227;48.780;9.210;2023-03-01T02:32:45;23.80;;;10.17;;
37047;SDS011;23227;48.780;9.210;2023-03-01T02:35:48;22.73;;;10.15;;
37047;SDS011;23227;48.780;9.210;2023-03-01T02:38:51;21.10;;;9.63;;
37047;SDS011;23227;48.780;9.210;2023-03-01T02:41:56;21.30;;;9.60;;
37047;SDS011;23227;48.780;9.210;2023-03-01T02:45:01;20.17;;;9.23;;
37047;SDS011;23227;48.780;9.210;2023-03-01T02:48:04;22.60;;;9.63;;
37047;SDS011;23227;48.780;9.210;2023-03-01T02:51:09;23.77;;;9.38;;
37047;SDS011;23227;48.780;9.210;2023-03-01T02:54:17;22.20;;;8.80;;
37047;SDS011;23227;48.780;9.210;2023-03-01T02:57:25;20.80;;;9.47;;
37047;SDS011;23227;48.780;9.210;2023-03-01T03:00:31;19.93;;;9.43;;
37047;SDS011;23227;48.780;9.210;2023-03-01T03:03:41;19.93;;;9.47;;
37047;SDS011;23227;48.780;9.210;2023-03-01T03:06:44;17.08;;;9.70;;
37047;SDS011;23227;48.780;9.210;2023-03-01T03:09:47;21.40;;;9.50;;
37047;SDS011;23227;48.780;9.210;2023-03-01T03:12:49;21.80;;;9.73;;
37047;SDS011;23227;48.780;9.210;2023-03-01T03:15:55;21.40;;;9.77;;
37047;SDS011;23227;48.780;9.210;2023-03-01T03:18:58;20.67;;;10.33;;
37047;SDS011;23227;48.780;9.210;2023-03-01T03:22:06;24.90;;;9.80;;
37047;SDS011;23227;48.780;9.210;2023-03-01T03:28:12;24.63;;;10.07;;
37047;SDS011;23227;48.780;9.210;2023-03-01T03:31:18;16.87;;;9.33;;
37047;SDS011;23227;48.780;9.210;2023-03-01T03:34:21;25.47;;;9.83;;
37047;SDS011;23227;48.780;9.210;2023-03-01T03:37:24;21.23;;;9.63;;
37047;SDS011;23227;48.780;9.210;2023-03-01T03:40:59;22.37;;;10.13;;
37047;SDS011;23227;48.780;9.210;2023-03-01T03:44:03;19.47;;;9.37;;
37047;SDS011;23227;48.780;9.210;2023-03-01T03:47:07;21.00;;;10.03;;
37047;SDS011;23227;48.780;9.210;2023-03-01T03:50:10;20.97;;;9.50;;
37047;SDS011;23227;48.780;9.210;2023-03-01T03:56:16;20.67;;;9.17;;
37047;SDS011;23227;48.780;9.210;2023-03-01T03:59:19;20.83;;;9.40;;
37047;SDS011;23227;48.780;9.210;2023-03-01T04:02:24;21.70;;;10.25;;
37047;SDS011;23227;48.780;9.210;2023-03-01T04:05:27;24.60;;;9.97;;
37047;SDS011;23227;48.780;9.210;2023-03-01T04:08:30;22.02;;;10.13;;
37047;SDS011;23227;48.780;9.210;2023-03-01T04:11:33;30.00;;;10.13;;
37047;SDS011;23227;48.780;9.210;2023-03-01T04:14:36;22.23;;;10.50;;
37047;SDS011;23227;48.780;9.210;2023-03-01T04:17:40;25.17;;;10.00;;
37047;SDS011;23227;48.780;9.210;2023-03-01T04:20:44;32.10;;;11.47;;
37047;SDS011;23227;48.780;9.210;2023-03-01T04:23:47;23.90;;;9.70;;
37047;SDS011;23227;48.780;9.210;2023-03-01T04:26:53;20.87;;;9.80;;
37047;SDS011;23227;48.780;9.210;2023-03-01T04:29:56;27.73;;;11.80;;
37047;SDS011;23227;48.780;9.210;2023-03-01T04:33:00;20.07;;;10.77;;
37047;SDS011;23227;48.780;9.210;2023-03-01T04:36:04;24.07;;;10.87;;
37047;SDS011;23227;48.780;9.210;2023-03-01T04:39:10;25.30;;;12.13;;
37047;SDS011;23227;48.780;9.210;2023-03-01T04:42:14;26.60;;;11.40;;
37047;SDS011;23227;48.780;9.210;2023-03-01T04:45:17;23.40;;;9.43;;
37047;SDS011;23227;48.780;9.210;2023-03-01T04:48:22;23.75;;;10.27;;
37047;SDS011;23227;48.780;9.210;2023-03-01T04:51:24;25.43;;;11.00;;
37047;SDS011;23227;48.780;9.210;2023-03-01T04:54:27;24.40;;;11.60;;
37047;SDS011;23227;48.780;9.210;2023-03-01T04:57:30;24.27;;;10.53;;
37047;SDS011;23227;48.780;9.210;2023-03-01T05:00:33;23.33;;;11.03;;
37047;SDS011;23227;48.780;9.210;2023-03-01T05:03:37;25.90;;;10.60;;
37047;SDS011;23227;48.780;9.210;2023-03-01T05:06:42;26.03;;;11.17;;
37047;SDS011;23227;48.780;9.210;2023-03-01T05:09:45;23.90;;;10.87;;
37047;SDS011;23227;48.780;9.210;2023-03-01T05:12:47;23.35;;;10.80;;
37047;SDS011;23227;48.780;9.210;2023-03-01T05:15:54;26.33;;;10.80;;
37047;SDS011;23227;48.780;9.210;2023-03-01T05:18:59;26.70;;;10.63;;
37047;SDS011;23227;48.780;9.210;2023-03-01T05:22:02;21.73;;;10.60;;
37047;SDS011;23227;48.780;9.210;2023-03-01T05:25:06;22.90;;;11.00;;
37047;SDS011;23227;48.780;9.210;2023-03-01T05:28:10;24.27;;;11.48;;
37047;SDS011;23227;48.780;9.210;2023-03-01T05:31:13;22.43;;;10.17;;
37047;SDS011;23227;48.780;9.210;2023-03-01T05:34:18;19.75;;;10.50;;
37047;SDS011;23227;48.780;9.210;2023-03-01T05:37:23;22.63;;;10.77;;
37047;SDS011;23227;48.780;9.210;2023-03-01T05:40:26;24.90;;;12.53;;
37047;SDS011;23227;48.780;9.210;2023-03-01T05:43:30;20.50;;;10.13;;
37047;SDS011;23227;48.780;9.210;2023-03-01T05:46:35;19.87;;;9.73;;
37047;SDS011;23227;48.780;9.210;2023-03-01T05:49:39;26.90;;;11.17;;
37047;SDS011;23227;48.780;9.210;2023-03-01T05:52:42;23.37;;;11.43;;
37047;SDS011;23227;48.780;9.210;2023-03-01T05:55:44;24.60;;;10.27;;
37047;SDS011;23227;48.780;9.210;2023-03-01T05:58:48;21.33;;;10.53;;
37047;SDS011;23227;48.780;9.210;2023-03-01T06:01:51;31.45;;;12.55;;
37047;SDS011;23227;48.780;9.210;2023-03-01T06:04:56;25.13;;;11.00;;
37047;SDS011;23227;48.780;9.210;2023-03-01T06:08:00;21.40;;;10.77;;
37047;SDS011;23227;48.780;9.210;2023-03-01T06:11:03;22.67;;;10.57;;
37047;SDS011;23227;48.780;9.210;2023-03-01T06:14:07;26.98;;;11.20;;
37047;SDS011;23227;48.780;9.210;2023-03-01T06:17:11;26.33;;;11.43;;
37047;SDS011;23227;48.780;9.210;2023-03-01T06:20:16;29.57;;;12.50;;
37047;SDS011;23227;48.780;9.210;2023-03-01T06:23:20;21.50;;;9.57;;
37047;SDS011;23227;48.780;9.210;2023-03-01T06:26:23;24.00;;;11.53;;
37047;SDS011;23227;48.780;9.210;2023-03-01T06:29:25;24.40;;;11.40;;
37047;SDS011;23227;48.780;9.210;2023-03-01T06:32:28;27.47;;;11.47;;
37047;SDS011;23227;48.780;9.210;2023-03-01T06:35:33;24.83;;;10.20;;
37047;SDS011;23227;48.780;9.210;2023-03-01T06:38:36;21.87;;;10.20;;
37047;SDS011;23227;48.780;9.210;2023-03-01T06:41:39;23.90;;;10.23;;
37047;SDS011;23227;48.780;9.210;2023-03-01T06:44:42;24.92;;;11.98;;
37047;SDS011;23227;48.780;9.210;2023-03-01T06:47:47;25.73;;;11.90;;
37047;SDS011;23227;48.780;9.210;2023-03-01T06:50:51;25.58;;;10.13;;
37047;SDS011;23227;48.780;9.210;2023-03-01T06:53:54;27.00;;;11.43;;
37047;SDS011;23227;48.780;9.210;2023-03-01T06:56:57;25.53;;;11.13;;
37047;SDS011;23227;48.780;9.210;2023-03-01T06:59:59;23.27;;;11.00;;
37047;SDS011;23227;48.780;9.210;2023-03-01T07:03:02;26.17;;;11.02;;
37047;SDS011;23227;48.780;9.210;2023-03-01T07:06:06;25.33;;;11.50;;
37047;SDS011;23227;48.780;9.210;2023-03-01T07:09:09;24.87;;;11.27;;
37047;SDS011;23227;48.780;9.210;2023-03-01T07:12:11;29.80;;;12.50;;
37047;SDS011;23227;48.780;9.210;2023-03-01T07:15:15;22.73;;;11.33;;
37047;SDS011;23227;48.780;9.210;2023-03-01T07:18:18;23.95;;;11.68;;
37047;SDS011;23227;48.780;9.210;2023-03-01T07:21:22;26.07;;;10.80;;
37047;SDS011;23227;48.780;9.210;2023-03-01T07:24:24;31.60;;;13.17;;
37047;SDS011;23227;48.780;9.210;2023-03-01T07:27:27;24.83;;;12.20;;
37047;SDS011;23227;48.780;9.210;2023-03-01T07:30:30;28.60;;;12.00;;
37047;SDS011;23227;48.780;9.210;2023-03-01T07:33:33;25.50;;;11.73;;
37047;SDS011;23227;48.780;9.210;2023-03-01T07:36:37;27.53;;;12.87;;
37047;SDS011;23227;48.780;9.210;2023-03-01T07:39:40;29.00;;;12.07;;
37047;SDS011;23227;48.780;9.210;2023-03-01T07:42:43;27.57;;;12.50;;
37047;SDS011;23227;48.780;9.210;2023-03-01T07:45:46;25.73;;;10.63;;
37047;SDS011;23227;48.780;9.210;2023-03-01T07:48:48;31.30;;;12.77;;
37047;SDS011;23227;48.780;9.210;2023-03-01T07:51:52;24.77;;;11.17;;
37047;SDS011;23227;48.780;9.210;2023-03-01T07:54:55;30.57;;;12.03;;
37047;SDS011;23227;48.780;9.210;2023-03-01T07:57:58;24.67;;;11.77;;
37047;SDS011;23227;48.780;9.210;2023-03-01T08:01:01;26.10;;;10.70;;
37047;SDS011;23227;48.780;9.210;2023-03-01T08:04:28;25.43;;;10.23;;
37047;SDS011;23227;48.780;9.210;2023-03-01T08:07:32;29.47;;;11.57;;
37047;SDS011;23227;48.780;9.210;2023-03-01T08:10:35;28.57;;;11.53;;
37047;SDS011;23227;48.780;9.210;2023-03-01T08:13:38;30.03;;;12.23;;
37047;SDS011;23227;48.780;9.210;2023-03-01T08:16:41;26.50;;;12.23;;
37047;SDS011;23227;48.780;9.210;2023-03-01T08:19:44;27.70;;;12.60;;
37047;SDS011;23227;48.780;9.210;2023-03-01T08:22:48;26.92;;;12.73;;
37047;SDS011;23227;48.780;9.210;2023-03-01T08:25:51;25.43;;;11.63;;
37047;SDS011;23227;48.780;9.210;2023-03-01T08:28:54;30.45;;;11.23;;
37047;SDS011;23227;48.780;9.210;2023-03-01T08:31:56;28.97;;;12.00;;
37047;SDS011;23227;48.780;9.210;2023-03-01T08:34:59;26.93;;;12.37;;
37047;SDS011;23227;48.780;9.210;2023-03-01T08:38:03;25.47;;;12.27;;
37047;SDS011;23227;48.780;9.210;2023-03-01T08:44:09;30.23;;;12.07;;
37047;SDS011;23227;48.780;9.210;2023-03-01T08:47:12;26.83;;;10.95;;
37047;SDS011;23227;48.780;9.210;2023-03-01T08:50:14;25.50;;;11.07;;
37047;SDS011;23227;48.780;9.210;2023-03-01T08:53:19;28.10;;;11.27;;
37047;SDS011;23227;48.780;9.210;2023-03-01T08:56:21;27.23;;;11.57;;
37047;SDS011;23227;48.780;9.210;2023-03-01T08:59:24;27.47;;;11.87;;
37047;SDS011;23227;48.780;9.210;2023-03-01T09:02:27;28.48;;;12.75;;
37047;SDS011;23227;48.780;9.210;2023-03-01T09:05:30;27.90;;;11.87;;
37047;SDS011;23227;48.780;9.210;2023-03-01T09:08:35;24.87;;;11.40;;
37047;SDS011;23227;48.780;9.210;2023-03-01T09:11:38;26.90;;;12.07;;
37047;SDS011;23227;48.780;9.210;2023-03-01T09:14:40;24.80;;;11.70;;
37047;SDS011;23227;48.780;9.210;2023-03-01T09:17:43;28.20;;;12.07;;
37047;SDS011;23227;48.780;9.210;2023-03-01T09:20:46;24.77;;;11.67;;
37047;SDS011;23227;48.780;9.210;2023-03-01T09:23:50;19.27;;;9.23;;
37047;SDS011;23227;48.780;9.210;2023-03-01T09:26:53;31.43;;;12.33;;
37047;SDS011;23227;48.780;9.210;2023-03-01T09:29:56;23.05;;;11.32;;
37047;SDS011;23227;48.780;9.210;2023-03-01T09:32:59;23.23;;;11.33;;
37047;SDS011;23227;48.780;9.210;2023-03-01T09:36:02;25.27;;;11.27;;
37047;SDS011;23227;48.780;9.210;2023-03-01T09:39:07;24.27;;;11.73;;
37047;SDS011;23227;48.780;9.210;2023-03-01T09:42:10;26.80;;;12.13;;
37047;SDS011;23227;48.780;9.210;2023-03-01T09:48:19;20.55;;;10.98;;
37047;SDS011;23227;48.780;9.210;2023-03-01T09:51:26;25.23;;;12.23;;
37047;SDS011;23227;48.780;9.210;2023-03-01T09:54:35;26.03;;;11.47;;
37047;SDS011;23227;48.780;9.210;2023-03-01T09:57:40;22.97;;;10.67;;
37047;SDS011;23227;48.780;9.210;2023-03-01T10:00:49;22.97;;;10.60;;
37047;SDS011;23227;48.780;9.210;2023-03-01T10:03:57;24.02;;;11.90;;
37047;SDS011;23227;48.780;9.210;2023-03-01T10:07:11;28.05;;;11.02;;
37047;SDS011;23227;48.780;9.210;2023-03-01T10:10:23;26.07;;;10.80;;
37047;SDS011;23227;48.780;9.210;2023-03-01T10:13:33;24.80;;;11.57;;
37047;SDS011;23227;48.780;9.210;2023-03-01T10:16:41;23.47;;;11.77;;
37047;SDS011;23227;48.780;9.210;2023-03-01T10:19:46;22.53;;;10.37;;
37047;SDS011;23227;48.780;9.210;2023-03-01T10:22:49;29.08;;;11.60;;
37047;SDS011;23227;48.780;9.210;2023-03-01T10:26:00;27.40;;;12.07;;
37047;SDS011;23227;48.780;9.210;2023-03-01T10:29:08;25.73;;;11.50;;
37047;SDS011;23227;48.780;9.210;2023-03-01T10:32:11;20.10;;;10.13;;
37047;SDS011;23227;48.780;9.210;2023-03-01T10:35:15;25.47;;;11.80;;
37047;SDS011;23227;48.780;9.210;2023-03-01T10:38:19;22.67;;;11.43;;
37047;SDS011;23227;48.780;9.210;2023-03-01T10:41:24;23.80;;;11.30;;
37047;SDS011;23227;48.780;9.210;2023-03-01T10:44:42;26.43;;;11.80;;
37047;SDS011;23227;48.780;9.210;2023-03-01T10:47:46;21.37;;;11.00;;
37047;SDS011;23227;48.780;9.210;2023-03-01T10:50:49;24.33;;;11.30;;
37047;SDS011;23227;48.780;9.210;2023-03-01T10:53:52;25.30;;;11.57;;
37047;SDS011;23227;48.780;9.210;2023-03-01T10:56:57;22.00;;;10.70;;
37047;SDS011;23227;48.780;9.210;2023-03-01T11:00:13;21.97;;;11.07;;
37047;SDS011;23227;48.780;9.210;2023-03-01T11:03:24;22.77;;;12.53;;
37047;SDS011;23227;48.780;9.210;2023-03-01T11:06:28;21.70;;;10.43;;
37047;SDS011;23227;48.780;9.210;2023-03-01T11:09:31;19.53;;;8.57;;
37047;SDS011;23227;48.780;9.210;2023-03-01T11:12:41;24.67;;;11.20;;
37047;SDS011;23227;48.780;9.210;2023-03-01T11:15:43;20.07;;;11.27;;
37047;SDS011;23227;48.780;9.210;2023-03-01T11:19:07;23.57;;;11.90;;
37047;SDS011;23227;48.780;9.210;2023-03-01T11:22:18;23.13;;;11.43;;
37047;SDS011;23227;48.780;9.210;2023-03-01T11:25:24;19.13;;;10.83;;
37047;SDS011;23227;48.780;9.210;2023-03-01T11:28:30;22.37;;;11.60;;
37047;SDS011;23227;48.780;9.210;2023-03-01T11:31:33;21.43;;;11.00;;
37047;SDS011;23227;48.780;9.210;2023-03-01T11:34:42;25.97;;;11.73;;
37047;SDS011;23227;48.780;9.210;2023-03-01T11:37:50;27.93;;;11.50;;
37047;SDS011;23227;48.780;9.210;2023-03-01T11:44:09;20.73;;;9.73;;
37047;SDS011;23227;48.780;9.210;2023-03-01T11:47:16;21.60;;;11.07;;
37047;SDS011;23227;48.780;9.210;2023-03-01T11:50:26;20.07;;;11.47;;
37047;SDS011;23227;48.780;9.210;2023-03-01T11:53:39;23.87;;;11.47;;
37047;SDS011;23227;48.780;9.210;2023-03-01T11:56:54;22.20;;;10.30;;
37047;SDS011;23227;48.780;9.210;2023-03-01T12:00:13;24.13;;;11.73;;
37047;SDS011;23227;48.780;9.210;2023-03-01T12:03:23;20.37;;;10.77;;
37047;SDS011;23227;48.780;9.210;2023-03-01T12:06:30;23.97;;;11.77;;
37047;SDS011;23227;48.780;9.210;2023-03-01T12:09:44;21.07;;;10.93;;
37047;SDS011;23227;48.780;9.210;2023-03-01T12:16:32;21.47;;;11.07;;
37047;SDS011;23227;48.780;9.210;2023-03-01T12:19:47;21.83;;;10.67;;
37047;SDS011;23227;48.780;9.210;2023-03-01T12:23:02;20.00;;;10.77;;
37047;SDS011;23227;48.780;9.210;2023-03-01T12:26:24;22.83;;;10.97;;
37047;SDS011;23227;48.780;9.210;2023-03-01T12:29:30;23.73;;;11.17;;
37047;SDS011;23227;48.780;9.210;2023-03-01T12:32:42;34.43;;;10.97;;
37047;SDS011;23227;48.780;9.210;2023-03-01T12:39:24;19.30;;;10.17;;
37047;SDS011;23227;48.780;9.210;2023-03-01T12:42:35;20.23;;;9.37;;
37047;SDS011;23227;48.780;9.210;2023-03-01T12:45:51;20.67;;;9.90;;
37047;SDS011;23227;48.780;9.210;2023-03-01T12:49:04;17.93;;;9.30;;
37047;SDS011;23227;48.780;9.210;2023-03-01T12:52:11;18.43;;;9.90;;
37047;SDS011;23227;48.780;9.210;2023-03-01T12:55:24;16.30;;;7.60;;
37047;SDS011;23227;48.780;9.210;2023-03-01T12:58:31;19.90;;;9.60;;
37047;SDS011;23227;48.780;9.210;2023-03-01T13:01:52;17.90;;;9.60;;
37047;SDS011;23227;48.780;9.210;2023-03-01T13:05:04;18.63;;;8.40;;
37047;SDS011;23227;48.780;9.210;2023-03-01T13:08:11;18.43;;;9.53;;
37047;SDS011;23227;48.780;9.210;2023-03-01T13:11:19;17.83;;;9.27;;
37047;SDS011;23227;48.780;9.210;2023-03-01T13:14:44;19.70;;;9.17;;
37047;SDS011;23227;48.780;9.210;2023-03-01T13:17:48;21.67;;;8.73;;
37047;SDS011;23227;48.780;9.210;2023-03-01T13:20:54;16.67;;;8.70;;
37047;SDS011;23227;48.780;9.210;2023-03-01T13:23:58;16.20;;;8.57;;
37047;SDS011;23227;48.780;9.210;2023-03-01T13:27:11;13.83;;;8.43;;
37047;SDS011;23227;48.780;9.210;2023-03-01T13:30:39;14.83;;;8.47;;
37047;SDS011;23227;48.780;9.210;2023-03-01T13:33:44;14.27;;;8.33;;
37047;SDS011;23227;48.780;9.210;2023-03-01T13:36:50;16.17;;;9.10;;
37047;SDS011;23227;48.780;9.210;2023-03-01T13:39:52;17.33;;;9.40;;
37047;SDS011;23227;48.780;9.210;2023-03-01T13:42:55;20.25;;;9.73;;
37047;SDS011;23227;48.780;9.210;2023-03-01T13:46:10;17.47;;;10.10;;
37047;SDS011;23227;48.780;9.210;2023-03-01T13:49:16;21.40;;;10.30;;
37047;SDS011;23227;48.780;9.210;2023-03-01T13:52:26;20.33;;;10.63;;
37047;SDS011;23227;48.780;9.210;2023-03-01T13:55:36;19.63;;;10.03;;
37047;SDS011;23227;48.780;9.210;2023-03-01T13:58:44;20.83;;;10.50;;
37047;SDS011;23227;48.780;9.210;2023-03-01T14:01:51;18.33;;;11.30;;
37047;SDS011;23227;48.780;9.210;2023-03-01T14:04:58;20.63;;;10.20;;
37047;SDS011;23227;48.780;9.210;2023-03-01T14:08:03;21.27;;;11.60;;
37047;SDS011;23227;48.780;9.210;2023-03-01T14:14:39;21.90;;;11.57;;
37047;SDS011;23227;48.780;9.210;2023-03-01T14:17:47;20.87;;;11.47;;
37047;SDS011;23227;48.780;9.210;2023-03-01T14:20:53;23.37;;;12.03;;
37047;SDS011;23227;48.780;9.210;2023-03-01T14:23:57;29.42;;;11.15;;
37047;SDS011;23227;48.780;9.210;2023-03-01T14:27:00;26.63;;;11.77;;
37047;SDS011;23227;48.780;9.210;2023-03-01T14:30:04;25.52;;;11.63;;
37047;SDS011;23227;48.780;9.210;2023-03-01T14:33:21;22.93;;;11.50;;
37047;SDS011;23227;48.780;9.210;2023-03-01T14:36:26;20.87;;;11.87;;
37047;SDS011;23227;48.780;9.210;2023-03-01T14:39:31;19.03;;;11.37;;
37047;SDS011;23227;48.780;9.210;2023-03-01T14:42:34;21.13;;;11.53;;
37047;SDS011;23227;48.780;9.210;2023-03-01T14:45:38;19.20;;;11.53;;
37047;SDS011;23227;48.780;9.210;2023-03-01T14:48:41;19.42;;;10.40;;
37047;SDS011;23227;48.780;9.210;2023-03-01T14:51:46;23.67;;;12.18;;
37047;SDS011;23227;48.780;9.210;2023-03-01T14:54:55;16.53;;;10.30;;
37047;SDS011;23227;48.780;9.210;2023-03-01T14:57:57;20.13;;;10.60;;
37047;SDS011;23227;48.780;9.210;2023-03-01T15:01:03;23.60;;;11.87;;
37047;SDS011;23227;48.780;9.210;2023-03-01T15:04:09;20.07;;;10.77;;
37047;SDS011;23227;48.780;9.210;2023-03-01T15:07:13;21.17;;;11.70;;
37047;SDS011;23227;48.780;9.210;2023-03-01T15:10:19;19.10;;;11.45;;
37047;SDS011;23227;48.780;9.210;2023-03-01T15:13:23;18.13;;;11.07;;
37047;SDS011;23227;48.780;9.210;2023-03-01T15:16:27;23.00;;;12.30;;
37047;SDS011;23227;48.780;9.210;2023-03-01T15:19:32;20.07;;;11.73;;
37047;SDS011;23227;48.780;9.210;2023-03-01T15:22:35;25.10;;;11.52;;
37047;SDS011;23227;48.780;9.210;2023-03-01T15:25:43;25.25;;;11.25;;
37047;SDS011;23227;48.780;9.210;2023-03-01T15:28:48;19.63;;;11.13;;
37047;SDS011;23227;48.780;9.210;2023-03-01T15:31:56;20.90;;;11.13;;
37047;SDS011;23227;48.780;9.210;2023-03-01T15:35:00;20.67;;;12.03;;
37047;SDS011;23227;48.780;9.210;2023-03-01T15:38:23;25.07;;;11.97;;
37047;SDS011;23227;48.780;9.210;2023-03-01T15:41:29;22.33;;;10.73;;
37047;SDS011;23227;48.780;9.210;2023-03-01T15:44:34;22.13;;;11.20;;
37047;SDS011;23227;48.780;9.210;2023-03-01T15:47:46;21.17;;;12.23;;
37047;SDS011;23227;48.780;9.210;2023-03-01T15:50:53;21.23;;;9.50;;
37047;SDS011;23227;48.780;9.210;2023-03-01T15:53:58;21.87;;;10.50;;
37047;SDS011;23227;48.780;9.210;2023-03-01T15:57:03;20.83;;;10.23;;
37047;SDS011;23227;48.780;9.210;2023-03-01T16:00:08;22.57;;;11.70;;
37047;SDS011;23227;48.780;9.210;2023-03-01T16:03:12;23.53;;;11.33;;
37047;SDS011;23227;48.780;9.210;2023-03-01T16:06:15;19.23;;;10.87;;
37047;SDS011;23227;48.780;9.210;2023-03-01T16:09:18;20.53;;;10.60;;
37047;SDS011;23227;48.780;9.210;2023-03-01T16:12:22;21.33;;;9.60;;
37047;SDS011;23227;48.780;9.210;2023-03-01T16:15:26;17.43;;;10.13;;
37047;SDS011;23227;48.780;9.210;2023-03-01T16:18:33;24.77;;;11.27;;
37047;SDS011;23227;48.780;9.210;2023-03-01T16:21:35;21.57;;;10.70;;
37047;SDS011;23227;48.780;9.210;2023-03-01T16:24:38;22.30;;;10.25;;
37047;SDS011;23227;48.780;9.210;2023-03-01T16:27:43;26.38;;;10.88;;
37047;SDS011;23227;48.780;9.210;2023-03-01T16:30:47;22.53;;;10.90;;
37047;SDS011;23227;48.780;9.210;2023-03-01T16:39:57;20.70;;;10.47;;
37047;SDS011;23227;48.780;9.210;2023-03-01T16:43:01;22.80;;;11.13;;
37047;SDS011;23227;48.780;9.210;2023-03-01T16:46:09;21.30;;;10.70;;
37047;SDS011;23227;48.780;9.210;2023-03-01T16:49:12;25.27;;;12.33;;
37047;SDS011;23227;48.780;9.210;2023-03-01T16:52:15;23.52;;;10.40;;
37047;SDS011;23227;48.780;9.210;2023-03-01T16:55:23;23.27;;;10.93;;
37047;SDS011;23227;48.780;9.210;2023-03-01T16:58:27;22.90;;;10.48;;
37047;SDS011;23227;48.780;9.210;2023-03-01T17:01:29;22.53;;;10.60;;
37047;SDS011;23227;48.780;9.210;2023-03-01T17:04:38;22.87;;;11.17;;
37047;SDS011;23227;48.780;9.210;2023-03-01T17:07:41;22.92;;;11.55;;
37047;SDS011;23227;48.780;9.210;2023-03-01T17:10:44;23.10;;;12.40;;
37047;SDS011;23227;48.780;9.210;2023-03-01T17:13:48;21.17;;;10.67;;
37047;SDS011;23227;48.780;9.210;2023-03-01T17:16:51;29.90;;;12.23;;
37047;SDS011;23227;48.780;9.210;2023-03-01T17:19:54;20.77;;;10.82;;
37047;SDS011;23227;48.780;9.210;2023-03-01T17:22:57;21.73;;;10.77;;
37047;SDS011;23227;48.780;9.210;2023-03-01T17:26:00;27.53;;;11.07;;
37047;SDS011;23227;48.780;9.210;2023-03-01T17:29:04;25.58;;;11.90;;
37047;SDS011;23227;48.780;9.210;2023-03-01T17:32:08;26.33;;;11.33;;
37047;SDS011;23227;48.780;9.210;2023-03-01T17:35:11;21.83;;;10.77;;
37047;SDS011;23227;48.780;9.210;2023-03-01T17:38:14;24.38;;;11.85;;
37047;SDS011;23227;48.780;9.210;2023-03-01T17:41:17;33.72;;;12.13;;
37047;SDS011;23227;48.780;9.210;2023-03-01T17:44:22;24.65;;;11.48;;
37047;SDS011;23227;48.780;9.210;2023-03-01T17:47:25;26.53;;;11.90;;
37047;SDS011;23227;48.780;9.210;2023-03-01T17:50:28;32.30;;;12.90;;
37047;SDS011;23227;48.780;9.210;2023-03-01T17:53:31;38.20;;;14.00;;
37047;SDS011;23227;48.780;9.210;2023-03-01T17:56:33;37.03;;;15.27;;
37047;SDS011;23227;48.780;9.210;2023-03-01T17:59:40;30.33;;;12.57;;
37047;SDS011;23227;48.780;9.210;2023-03-01T18:02:43;30.53;;;12.60;;
37047;SDS011;23227;48.780;9.210;2023-03-01T18:05:46;24.80;;;11.80;;
37047;SDS011;23227;48.780;9.210;2023-03-01T18:08:49;35.47;;;12.63;;
37047;SDS011;23227;48.780;9.210;2023-03-01T18:11:53;28.43;;;12.30;;
37047;SDS011;23227;48.780;9.210;2023-03-01T18:14:57;35.17;;;13.97;;
37047;SDS011;23227;48.780;9.210;2023-03-01T18:18:00;28.33;;;12.13;;
37047;SDS011;23227;48.780;9.210;2023-03-01T18:21:03;29.03;;;12.13;;
37047;SDS011;23227;48.780;9.210;2023-03-01T18:24:06;27.95;;;12.02;;
37047;SDS011;23227;48.780;9.210;2023-03-01T18:27:09;27.30;;;11.83;;
37047;SDS011;23227;48.780;9.210;2023-03-01T18:30:14;28.92;;;12.57;;
37047;SDS011;23227;48.780;9.210;2023-03-01T18:33:17;26.77;;;12.50;;
37047;SDS011;23227;48.780;9.210;2023-03-01T18:36:21;38.13;;;13.00;;
37047;SDS011;23227;48.780;9.210;2023-03-01T18:39:24;28.87;;;12.00;;
37047;SDS011;23227;48.780;9.210;2023-03-01T18:42:27;28.60;;;13.60;;